sensor_id;sensor_type;location;lat;lon;timestamp;P1;durP1;ratioP1;P2;durP2;ratioP2
9413;SDS011;4746;35.664;139.738;2024-01-27T00:01:18;1.27;;;1.17;;
9413;SDS011;4746;35.664;139.738;2024-01-27T00:03:45;1.47;;;1.37;;
9413;SDS011;4746;35.664;139.738;2024-01-27T00:06:13;1.63;;;1.53;;
9413;SDS011;4746;35.664;139.738;2024-01-27T00:08:41;1.50;;;1.40;;
9413;SDS011;4746;35.664;139.738;2024-01-27T00:11:10;1.10;;;1.10;;
9413;SDS011;4746;35.664;139.738;2024-01-27T00:13:38;0.90;;;0.90;;
9413;SDS011;4746;35.664;139.738;2024-01-27T00:16:05;1.40;;;1.30;;
9413;SDS011;4746;35.664;139.738;2024-01-27T00:18:38;1.30;;;1.20;;
9413;SDS011;4746;35.664;139.738;2024-01-27T00:21:05;1.30;;;1.03;;
9413;SDS011;4746;35.664;139.738;2024-01-27T00:23:33;2.13;;;1.23;;
9413;SDS011;4746;35.664;139.738;2024-01-27T00:26:01;1.50;;;1.37;;
9413;SDS011;4746;35.664;139.738;2024-01-27T00:28:29;1.83;;;1.50;;
9413;SDS011;4746;35.664;139.738;2024-01-27T00:30:57;2.10;;;1.40;;
9413;SDS011;4746;35.664;139.738;2024-01-27T00:33:24;1.27;;;1.17;;
9413;SDS011;4746;35.664;139.738;2024-01-27T00:35:52;1.50;;;1.40;;
9413;SDS011;4746;35.664;139.738;2024-01-27T00:38:20;2.20;;;1.30;;
9413;SDS011;4746;35.664;139.738;2024-01-27T00:40:47;2.33;;;1.30;;
9413;SDS011;4746;35.664;139.738;2024-01-27T00:43:17;1.37;;;1.23;;
9413;SDS011;4746;35.664;139.738;2024-01-27T00:45:48;1.77;;;1.17;;
9413;SDS011;4746;35.664;139.738;2024-01-27T00:48:16;1.20;;;1.10;;
9413;SDS011;4746;35.664;139.738;2024-01-27T00:50:44;3.53;;;1.13;;
9413;SDS011;4746;35.664;139.738;2024-01-27T00:53:12;1.17;;;1.17;;
9413;SDS011;4746;35.664;139.738;2024-01-27T00:55:40;1.53;;;1.03;;
9413;SDS011;4746;35.664;139.738;2024-01-27T00:58:08;1.00;;;1.00;;
9413;SDS011;4746;35.664;139.738;2024-01-27T01:00:35;0.83;;;0.83;;
9413;SDS011;4746;35.664;139.738;2024-01-27T01:03:03;0.80;;;0.80;;
9413;SDS011;4746;35.664;139.738;2024-01-27T01:05:30;1.30;;;1.20;;
9413;SDS011;4746;35.664;139.738;2024-01-27T01:07:58;1.30;;;1.20;;
9413;SDS011;4746;35.664;139.738;2024-01-27T01:10:26;1.40;;;1.33;;
9413;SDS011;4746;35.664;139.738;2024-01-27T01:12:54;1.07;;;1.07;;
9413;SDS011;4746;35.664;139.738;2024-01-27T01:15:22;1.70;;;1.20;;
9413;SDS011;4746;35.664;139.738;2024-01-27T01:17:49;1.70;;;1.23;;
9413;SDS011;4746;35.664;139.738;2024-01-27T01:20:17;0.90;;;0.90;;
9413;SDS011;4746;35.664;139.738;2024-01-27T01:22:44;1.17;;;1.10;;
9413;SDS011;4746;35.664;139.738;2024-01-27T01:25:13;1.20;;;1.10;;
9413;SDS011;4746;35.664;139.738;2024-01-27T01:27:42;1.53;;;1.37;;
9413;SDS011;4746;35.664;139.738;2024-01-27T01:30:10;1.20;;;1.10;;
9413;SDS011;4746;35.664;139.738;2024-01-27T01:32:38;1.10;;;1.00;;
9413;SDS011;4746;35.664;139.738;2024-01-27T01:35:10;0.70;;;0.70;;
9413;SDS011;4746;35.664;139.738;2024-01-27T01:37:40;1.03;;;0.93;;
9413;SDS011;4746;35.664;139.738;2024-01-27T01:40:10;1.47;;;1.20;;
9413;SDS011;4746;35.664;139.738;2024-01-27T01:42:38;1.40;;;1.00;;
9413;SDS011;4746;35.664;139.738;2024-01-27T01:45:05;1.40;;;1.27;;
9413;SDS011;4746;35.664;139.738;2024-01-27T01:47:38;1.10;;;1.10;;
9413;SDS011;4746;35.664;139.738;2024-01-27T01:50:06;1.33;;;1.23;;
9413;SDS011;4746;35.664;139.738;2024-01-27T01:52:34;1.90;;;1.20;;
9413;SDS011;4746;35.664;139.738;2024-01-27T01:55:04;1.60;;;1.50;;
9413;SDS011;4746;35.664;139.738;2024-01-27T01:57:33;2.30;;;1.43;;
9413;SDS011;4746;35.664;139.738;2024-01-27T02:00:03;1.57;;;1.47;;
9413;SDS011;4746;35.664;139.738;2024-01-27T02:02:32;2.07;;;1.70;;
9413;SDS011;4746;35.664;139.738;2024-01-27T02:04:59;1.30;;;1.20;;
9413;SDS011;4746;35.664;139.738;2024-01-27T02:07:27;1.80;;;1.50;;
9413;SDS011;4746;35.664;139.738;2024-01-27T02:09:54;1.20;;;1.10;;
9413;SDS011;4746;35.664;139.738;2024-01-27T02:12:23;1.20;;;1.10;;
9413;SDS011;4746;35.664;139.738;2024-01-27T02:14:51;1.30;;;1.30;;
9413;SDS011;4746;35.664;139.738;2024-01-27T02:17:18;1.10;;;1.10;;
9413;SDS011;4746;35.664;139.738;2024-01-27T02:19:48;1.10;;;1.00;;
9413;SDS011;4746;35.664;139.738;2024-01-27T02:22:15;0.90;;;0.90;;
9413;SDS011;4746;35.664;139.738;2024-01-27T02:24:44;1.70;;;1.00;;
9413;SDS011;4746;35.664;139.738;2024-01-27T02:27:14;1.23;;;1.00;;
9413;SDS011;4746;35.664;139.738;2024-01-27T02:29:42;1.13;;;1.03;;
9413;SDS011;4746;35.664;139.738;2024-01-27T02:32:10;1.27;;;1.17;;
9413;SDS011;4746;35.664;139.738;2024-01-27T02:34:38;2.33;;;1.10;;
9413;SDS011;4746;35.664;139.738;2024-01-27T02:37:08;0.83;;;0.83;;
9413;SDS011;4746;35.664;139.738;2024-01-27T02:39:36;1.00;;;0.83;;
9413;SDS011;4746;35.664;139.738;2024-01-27T02:42:05;0.90;;;0.90;;
9413;SDS011;4746;35.664;139.738;2024-01-27T02:44:33;1.60;;;1.03;;
9413;SDS011;4746;35.664;139.738;2024-01-27T02:47:00;0.90;;;0.90;;
9413;SDS011;4746;35.664;139.738;2024-01-27T02:49:28;1.07;;;0.97;;
9413;SDS011;4746;35.664;139.738;2024-01-27T02:51:56;1.40;;;1.30;;
9413;SDS011;4746;35.664;139.738;2024-01-27T02:54:23;0.90;;;0.90;;
9413;SDS011;4746;35.664;139.738;2024-01-27T02:56:51;2.10;;;1.10;;
9413;SDS011;4746;35.664;139.738;2024-01-27T02:59:18;1.07;;;1.07;;
9413;SDS011;4746;35.664;139.738;2024-01-27T03:01:46;0.97;;;0.90;;
9413;SDS011;4746;35.664;139.738;2024-01-27T03:04:13;1.00;;;1.00;;
9413;SDS011;4746;35.664;139.738;2024-01-27T03:06:41;1.40;;;1.30;;
9413;SDS011;4746;35.664;139.738;2024-01-27T03:09:10;1.13;;;1.10;;
9413;SDS011;4746;35.664;139.738;2024-01-27T03:11:38;0.80;;;0.80;;
9413;SDS011;4746;35.664;139.738;2024-01-27T03:14:06;1.20;;;1.10;;
9413;SDS011;4746;35.664;139.738;2024-01-27T03:16:33;1.43;;;1.33;;
9413;SDS011;4746;35.664;139.738;2024-01-27T03:19:01;3.07;;;1.13;;
9413;SDS011;4746;35.664;139.738;2024-01-27T03:21:29;1.60;;;1.50;;
9413;SDS011;4746;35.664;139.738;2024-01-27T03:23:56;1.67;;;1.53;;
9413;SDS011;4746;35.664;139.738;2024-01-27T03:26:24;1.67;;;1.57;;
9413;SDS011;4746;35.664;139.738;2024-01-27T03:28:51;1.40;;;1.30;;
9413;SDS011;4746;35.664;139.738;2024-01-27T03:31:19;1.60;;;1.30;;
9413;SDS011;4746;35.664;139.738;2024-01-27T03:33:47;1.50;;;1.10;;
9413;SDS011;4746;35.664;139.738;2024-01-27T03:36:16;1.50;;;1.40;;
9413;SDS011;4746;35.664;139.738;2024-01-27T03:38:44;1.20;;;1.10;;
9413;SDS011;4746;35.664;139.738;2024-01-27T03:41:12;0.90;;;0.90;;
9413;SDS011;4746;35.664;139.738;2024-01-27T03:43:40;1.43;;;1.00;;
9413;SDS011;4746;35.664;139.738;2024-01-27T03:46:07;1.03;;;1.00;;
9413;SDS011;4746;35.664;139.738;2024-01-27T03:48:35;1.00;;;1.00;;
9413;SDS011;4746;35.664;139.738;2024-01-27T03:51:03;1.33;;;1.20;;
9413;SDS011;4746;35.664;139.738;2024-01-27T03:53:31;1.00;;;1.00;;
9413;SDS011;4746;35.664;139.738;2024-01-27T03:55:58;0.87;;;0.87;;
9413;SDS011;4746;35.664;139.738;2024-01-27T03:58:30;1.73;;;1.10;;
9413;SDS011;4746;35.664;139.738;2024-01-27T04:00:58;2.20;;;1.40;;
9413;SDS011;4746;35.664;139.738;2024-01-27T04:03:26;1.40;;;1.30;;
9413;SDS011;4746;35.664;139.738;2024-01-27T04:05:57;2.07;;;1.10;;
9413;SDS011;4746;35.664;139.738;2024-01-27T04:08:29;2.07;;;1.10;;
9413;SDS011;4746;35.664;139.738;2024-01-27T04:11:18;1.50;;;1.37;;
9413;SDS011;4746;35.664;139.738;2024-01-27T04:13:50;1.67;;;1.57;;
9413;SDS011;4746;35.664;139.738;2024-01-27T04:16:21;1.73;;;1.63;;
9413;SDS011;4746;35.664;139.738;2024-01-27T04:18:52;2.43;;;2.23;;
9413;SDS011;4746;35.664;139.738;2024-01-27T04:21:41;1.97;;;1.80;;
9413;SDS011;4746;35.664;139.738;2024-01-27T04:24:22;1.70;;;1.60;;
9413;SDS011;4746;35.664;139.738;2024-01-27T04:26:50;1.43;;;1.33;;
9413;SDS011;4746;35.664;139.738;2024-01-27T04:29:17;1.40;;;1.30;;
9413;SDS011;4746;35.664;139.738;2024-01-27T04:31:48;1.63;;;1.53;;
9413;SDS011;4746;35.664;139.738;2024-01-27T04:34:16;0.80;;;0.80;;
9413;SDS011;4746;35.664;139.738;2024-01-27T04:36:45;1.83;;;0.80;;
9413;SDS011;4746;35.664;139.738;2024-01-27T04:39:12;1.50;;;1.00;;
9413;SDS011;4746;35.664;139.738;2024-01-27T04:41:42;1.20;;;1.15;;
9413;SDS011;4746;35.664;139.738;2024-01-27T04:44:10;1.42;;;0.95;;
9413;SDS011;4746;35.664;139.738;2024-01-27T04:46:41;2.55;;;1.13;;
9413;SDS011;4746;35.664;139.738;2024-01-27T04:49:10;1.08;;;0.90;;
9413;SDS011;4746;35.664;139.738;2024-01-27T04:51:51;1.20;;;1.05;;
9413;SDS011;4746;35.664;139.738;2024-01-27T04:54:18;1.40;;;1.30;;
9413;SDS011;4746;35.664;139.738;2024-01-27T04:56:46;1.73;;;1.05;;
9413;SDS011;4746;35.664;139.738;2024-01-27T04:59:13;3.33;;;1.08;;
9413;SDS011;4746;35.664;139.738;2024-01-27T05:01:46;1.65;;;1.17;;
9413;SDS011;4746;35.664;139.738;2024-01-27T05:04:15;1.33;;;1.23;;
9413;SDS011;4746;35.664;139.738;2024-01-27T05:06:45;1.92;;;0.93;;
9413;SDS011;4746;35.664;139.738;2024-01-27T05:09:13;3.17;;;1.17;;
9413;SDS011;4746;35.664;139.738;2024-01-27T05:11:41;0.73;;;0.60;;
9413;SDS011;4746;35.664;139.738;2024-01-27T05:14:11;1.33;;;0.90;;
9413;SDS011;4746;35.664;139.738;2024-01-27T05:16:42;1.02;;;0.93;;
9413;SDS011;4746;35.664;139.738;2024-01-27T05:19:10;0.80;;;0.70;;
9413;SDS011;4746;35.664;139.738;2024-01-27T05:21:37;1.10;;;0.88;;
9413;SDS011;4746;35.664;139.738;2024-01-27T05:24:05;1.20;;;1.00;;
9413;SDS011;4746;35.664;139.738;2024-01-27T05:26:33;0.95;;;0.88;;
9413;SDS011;4746;35.664;139.738;2024-01-27T05:29:00;1.13;;;1.02;;
9413;SDS011;4746;35.664;139.738;2024-01-27T05:31:28;1.15;;;0.80;;
9413;SDS011;4746;35.664;139.738;2024-01-27T05:33:55;1.35;;;1.05;;
9413;SDS011;4746;35.664;139.738;2024-01-27T05:36:23;0.90;;;0.90;;
9413;SDS011;4746;35.664;139.738;2024-01-27T05:38:51;0.77;;;0.73;;
9413;SDS011;4746;35.664;139.738;2024-01-27T05:41:19;1.50;;;1.08;;
9413;SDS011;4746;35.664;139.738;2024-01-27T05:43:51;0.80;;;0.80;;
9413;SDS011;4746;35.664;139.738;2024-01-27T05:46:18;1.13;;;0.70;;
9413;SDS011;4746;35.664;139.738;2024-01-27T05:48:46;1.08;;;0.75;;
9413;SDS011;4746;35.664;139.738;2024-01-27T05:51:14;0.60;;;0.60;;
9413;SDS011;4746;35.664;139.738;2024-01-27T05:53:41;0.70;;;0.68;;
9413;SDS011;4746;35.664;139.738;2024-01-27T05:56:09;1.73;;;0.90;;
9413;SDS011;4746;35.664;139.738;2024-01-27T05:58:37;1.10;;;1.00;;
9413;SDS011;4746;35.664;139.738;2024-01-27T06:01:04;0.82;;;0.82;;
9413;SDS011;4746;35.664;139.738;2024-01-27T06:03:36;0.70;;;0.70;;
9413;SDS011;4746;35.664;139.738;2024-01-27T06:06:13;1.05;;;1.05;;
9413;SDS011;4746;35.664;139.738;2024-01-27T06:08:41;1.38;;;0.80;;
9413;SDS011;4746;35.664;139.738;2024-01-27T06:11:08;1.02;;;0.80;;
9413;SDS011;4746;35.664;139.738;2024-01-27T06:13:36;1.00;;;0.65;;
9413;SDS011;4746;35.664;139.738;2024-01-27T06:16:07;0.65;;;0.65;;
9413;SDS011;4746;35.664;139.738;2024-01-27T06:18:35;1.25;;;0.60;;
9413;SDS011;4746;35.664;139.738;2024-01-27T06:21:05;1.40;;;0.65;;
9413;SDS011;4746;35.664;139.738;2024-01-27T06:23:32;1.17;;;0.77;;
9413;SDS011;4746;35.664;139.738;2024-01-27T06:26:06;1.75;;;0.50;;
9413;SDS011;4746;35.664;139.738;2024-01-27T06:28:34;0.95;;;0.63;;
9413;SDS011;4746;35.664;139.738;2024-01-27T06:31:03;0.77;;;0.60;;
9413;SDS011;4746;35.664;139.738;2024-01-27T06:33:34;1.73;;;0.60;;
9413;SDS011;4746;35.664;139.738;2024-01-27T06:36:02;1.38;;;0.70;;
9413;SDS011;4746;35.664;139.738;2024-01-27T06:38:30;1.13;;;0.70;;
9413;SDS011;4746;35.664;139.738;2024-01-27T06:41:03;0.80;;;0.80;;
9413;SDS011;4746;35.664;139.738;2024-01-27T06:43:31;0.60;;;0.60;;
9413;SDS011;4746;35.664;139.738;2024-01-27T06:45:59;1.02;;;0.70;;
9413;SDS011;4746;35.664;139.738;2024-01-27T06:48:31;0.52;;;0.52;;
9413;SDS011;4746;35.664;139.738;2024-01-27T06:51:04;1.55;;;1.00;;
9413;SDS011;4746;35.664;139.738;2024-01-27T06:53:37;0.60;;;0.60;;
9413;SDS011;4746;35.664;139.738;2024-01-27T06:56:16;0.85;;;0.70;;
9413;SDS011;4746;35.664;139.738;2024-01-27T06:58:47;0.80;;;0.80;;
9413;SDS011;4746;35.664;139.738;2024-01-27T07:01:15;0.60;;;0.60;;
9413;SDS011;4746;35.664;139.738;2024-01-27T07:03:46;1.67;;;0.70;;
9413;SDS011;4746;35.664;139.738;2024-01-27T07:06:16;0.65;;;0.65;;
9413;SDS011;4746;35.664;139.738;2024-01-27T07:08:46;1.30;;;0.65;;
9413;SDS011;4746;35.664;139.738;2024-01-27T07:11:14;1.15;;;0.70;;
9413;SDS011;4746;35.664;139.738;2024-01-27T07:13:43;2.35;;;1.17;;
9413;SDS011;4746;35.664;139.738;2024-01-27T07:16:17;0.85;;;0.85;;
9413;SDS011;4746;35.664;139.738;2024-01-27T07:18:45;0.60;;;0.60;;
9413;SDS011;4746;35.664;139.738;2024-01-27T07:21:17;0.70;;;0.70;;
9413;SDS011;4746;35.664;139.738;2024-01-27T07:23:48;1.00;;;0.95;;
9413;SDS011;4746;35.664;139.738;2024-01-27T07:26:17;0.83;;;0.70;;
9413;SDS011;4746;35.664;139.738;2024-01-27T07:28:45;1.70;;;1.00;;
9413;SDS011;4746;35.664;139.738;2024-01-27T07:31:13;1.43;;;0.90;;
9413;SDS011;4746;35.664;139.738;2024-01-27T07:33:41;0.80;;;0.80;;
9413;SDS011;4746;35.664;139.738;2024-01-27T07:36:12;0.73;;;0.73;;
9413;SDS011;4746;35.664;139.738;2024-01-27T07:38:40;0.80;;;0.80;;
9413;SDS011;4746;35.664;139.738;2024-01-27T07:41:08;0.87;;;0.67;;
9413;SDS011;4746;35.664;139.738;2024-01-27T07:43:35;1.37;;;0.87;;
9413;SDS011;4746;35.664;139.738;2024-01-27T07:46:05;1.60;;;0.90;;
9413;SDS011;4746;35.664;139.738;2024-01-27T07:48:33;0.80;;;0.80;;
9413;SDS011;4746;35.664;139.738;2024-01-27T07:51:06;1.03;;;1.03;;
9413;SDS011;4746;35.664;139.738;2024-01-27T07:53:34;1.13;;;1.03;;
9413;SDS011;4746;35.664;139.738;2024-01-27T07:56:03;0.67;;;0.67;;
9413;SDS011;4746;35.664;139.738;2024-01-27T07:58:33;1.00;;;0.87;;
9413;SDS011;4746;35.664;139.738;2024-01-27T08:01:00;0.50;;;0.50;;
9413;SDS011;4746;35.664;139.738;2024-01-27T08:03:30;0.90;;;0.90;;
9413;SDS011;4746;35.664;139.738;2024-01-27T08:05:58;0.70;;;0.70;;
9413;SDS011;4746;35.664;139.738;2024-01-27T08:08:37;1.20;;;0.77;;
9413;SDS011;4746;35.664;139.738;2024-01-27T08:11:07;0.90;;;0.90;;
9413;SDS011;4746;35.664;139.738;2024-01-27T08:13:35;1.30;;;0.70;;
9413;SDS011;4746;35.664;139.738;2024-01-27T08:16:03;0.67;;;0.67;;
9413;SDS011;4746;35.664;139.738;2024-01-27T08:18:31;0.73;;;0.73;;
9413;SDS011;4746;35.664;139.738;2024-01-27T08:20:59;1.90;;;1.10;;
9413;SDS011;4746;35.664;139.738;2024-01-27T08:23:34;1.20;;;1.00;;
9413;SDS011;4746;35.664;139.738;2024-01-27T08:26:02;1.47;;;1.30;;
9413;SDS011;4746;35.664;139.738;2024-01-27T08:28:31;1.97;;;0.97;;
9413;SDS011;4746;35.664;139.738;2024-01-27T08:30:59;1.50;;;0.90;;
9413;SDS011;4746;35.664;139.738;2024-01-27T08:33:27;1.43;;;0.80;;
9413;SDS011;4746;35.664;139.738;2024-01-27T08:35:54;1.90;;;1.10;;
9413;SDS011;4746;35.664;139.738;2024-01-27T08:38:22;2.00;;;1.30;;
9413;SDS011;4746;35.664;139.738;2024-01-27T08:40:51;1.60;;;1.00;;
9413;SDS011;4746;35.664;139.738;2024-01-27T08:43:20;1.60;;;1.40;;
9413;SDS011;4746;35.664;139.738;2024-01-27T08:45:48;1.50;;;1.10;;
9413;SDS011;4746;35.664;139.738;2024-01-27T08:48:17;1.20;;;0.90;;
9413;SDS011;4746;35.664;139.738;2024-01-27T08:50:45;1.40;;;1.20;;
9413;SDS011;4746;35.664;139.738;2024-01-27T08:53:12;1.23;;;1.20;;
9413;SDS011;4746;35.664;139.738;2024-01-27T08:55:40;1.20;;;1.10;;
9413;SDS011;4746;35.664;139.738;2024-01-27T08:58:08;1.13;;;1.07;;
9413;SDS011;4746;35.664;139.738;2024-01-27T09:00:35;0.80;;;0.80;;
9413;SDS011;4746;35.664;139.738;2024-01-27T09:03:03;1.23;;;1.13;;
9413;SDS011;4746;35.664;139.738;2024-01-27T09:05:32;1.07;;;0.97;;
9413;SDS011;4746;35.664;139.738;2024-01-27T09:08:01;1.20;;;1.10;;
9413;SDS011;4746;35.664;139.738;2024-01-27T09:10:28;2.40;;;1.60;;
9413;SDS011;4746;35.664;139.738;2024-01-27T09:12:56;1.13;;;1.10;;
9413;SDS011;4746;35.664;139.738;2024-01-27T09:15:24;1.00;;;1.00;;
9413;SDS011;4746;35.664;139.738;2024-01-27T09:17:51;1.13;;;1.13;;
9413;SDS011;4746;35.664;139.738;2024-01-27T09:20:20;1.43;;;1.33;;
9413;SDS011;4746;35.664;139.738;2024-01-27T09:22:48;1.00;;;1.00;;
9413;SDS011;4746;35.664;139.738;2024-01-27T09:25:16;1.93;;;1.63;;
9413;SDS011;4746;35.664;139.738;2024-01-27T09:27:44;1.50;;;1.40;;
9413;SDS011;4746;35.664;139.738;2024-01-27T09:30:11;1.63;;;1.53;;
9413;SDS011;4746;35.664;139.738;2024-01-27T09:32:39;2.23;;;1.63;;
9413;SDS011;4746;35.664;139.738;2024-01-27T09:35:07;1.60;;;1.50;;
9413;SDS011;4746;35.664;139.738;2024-01-27T09:37:35;2.23;;;2.03;;
9413;SDS011;4746;35.664;139.738;2024-01-27T09:40:04;1.43;;;1.33;;
9413;SDS011;4746;35.664;139.738;2024-01-27T09:42:32;1.63;;;1.53;;
9413;SDS011;4746;35.664;139.738;2024-01-27T09:45:01;1.67;;;1.57;;
9413;SDS011;4746;35.664;139.738;2024-01-27T09:47:30;2.20;;;1.53;;
9413;SDS011;4746;35.664;139.738;2024-01-27T09:49:59;1.60;;;1.50;;
9413;SDS011;4746;35.664;139.738;2024-01-27T09:52:27;1.23;;;1.23;;
9413;SDS011;4746;35.664;139.738;2024-01-27T09:54:54;1.40;;;1.30;;
9413;SDS011;4746;35.664;139.738;2024-01-27T09:57:22;2.10;;;1.90;;
9413;SDS011;4746;35.664;139.738;2024-01-27T09:59:50;1.50;;;1.40;;
9413;SDS011;4746;35.664;139.738;2024-01-27T10:02:18;1.80;;;1.70;;
9413;SDS011;4746;35.664;139.738;2024-01-27T10:04:51;1.90;;;1.60;;
9413;SDS011;4746;35.664;139.738;2024-01-27T10:07:20;2.63;;;1.60;;
9413;SDS011;4746;35.664;139.738;2024-01-27T10:09:49;1.70;;;1.60;;
9413;SDS011;4746;35.664;139.738;2024-01-27T10:12:17;1.83;;;1.67;;
9413;SDS011;4746;35.664;139.738;2024-01-27T10:14:51;1.77;;;1.67;;
9413;SDS011;4746;35.664;139.738;2024-01-27T10:17:22;2.30;;;1.67;;
9413;SDS011;4746;35.664;139.738;2024-01-27T10:20:01;1.73;;;1.40;;
9413;SDS011;4746;35.664;139.738;2024-01-27T10:22:37;1.50;;;1.37;;
9413;SDS011;4746;35.664;139.738;2024-01-27T10:25:06;1.70;;;1.60;;
9413;SDS011;4746;35.664;139.738;2024-01-27T10:27:35;1.57;;;1.50;;
9413;SDS011;4746;35.664;139.738;2024-01-27T10:30:04;2.33;;;1.77;;
9413;SDS011;4746;35.664;139.738;2024-01-27T10:32:35;2.00;;;1.90;;
9413;SDS011;4746;35.664;139.738;2024-01-27T10:35:06;1.23;;;1.23;;
9413;SDS011;4746;35.664;139.738;2024-01-27T10:37:34;1.80;;;1.70;;
9413;SDS011;4746;35.664;139.738;2024-01-27T10:40:06;2.80;;;1.47;;
9413;SDS011;4746;35.664;139.738;2024-01-27T10:42:35;2.07;;;1.90;;
9413;SDS011;4746;35.664;139.738;2024-01-27T10:45:04;1.90;;;1.70;;
9413;SDS011;4746;35.664;139.738;2024-01-27T10:47:32;1.60;;;1.50;;
9413;SDS011;4746;35.664;139.738;2024-01-27T10:50:00;1.77;;;1.53;;
9413;SDS011;4746;35.664;139.738;2024-01-27T10:52:31;1.80;;;1.70;;
9413;SDS011;4746;35.664;139.738;2024-01-27T10:55:04;2.90;;;1.83;;
9413;SDS011;4746;35.664;139.738;2024-01-27T10:57:36;2.20;;;1.60;;
9413;SDS011;4746;35.664;139.738;2024-01-27T11:00:06;1.50;;;1.43;;
9413;SDS011;4746;35.664;139.738;2024-01-27T11:02:38;4.23;;;2.20;;
9413;SDS011;4746;35.664;139.738;2024-01-27T11:05:10;1.90;;;1.80;;
9413;SDS011;4746;35.664;139.738;2024-01-27T11:07:44;3.40;;;2.03;;
9413;SDS011;4746;35.664;139.738;2024-01-27T11:10:16;2.23;;;2.00;;
9413;SDS011;4746;35.664;139.738;2024-01-27T11:12:44;3.03;;;2.00;;
9413;SDS011;4746;35.664;139.738;2024-01-27T11:15:20;2.10;;;2.00;;
9413;SDS011;4746;35.664;139.738;2024-01-27T11:17:48;2.07;;;1.87;;
9413;SDS011;4746;35.664;139.738;2024-01-27T11:20:25;1.93;;;1.73;;
9413;SDS011;4746;35.664;139.738;2024-01-27T11:22:53;2.37;;;2.00;;
9413;SDS011;4746;35.664;139.738;2024-01-27T11:25:26;1.93;;;1.83;;
9413;SDS011;4746;35.664;139.738;2024-01-27T11:27:54;2.60;;;1.93;;
9413;SDS011;4746;35.664;139.738;2024-01-27T11:30:28;3.70;;;2.40;;
9413;SDS011;4746;35.664;139.738;2024-01-27T11:33:04;1.90;;;1.80;;
9413;SDS011;4746;35.664;139.738;2024-01-27T11:35:33;2.30;;;2.10;;
9413;SDS011;4746;35.664;139.738;2024-01-27T11:38:01;2.93;;;2.60;;
9413;SDS011;4746;35.664;139.738;2024-01-27T11:40:29;2.60;;;2.03;;
9413;SDS011;4746;35.664;139.738;2024-01-27T11:42:57;3.20;;;2.13;;
9413;SDS011;4746;35.664;139.738;2024-01-27T11:45:29;1.83;;;1.73;;
9413;SDS011;4746;35.664;139.738;2024-01-27T11:47:59;2.27;;;2.07;;
9413;SDS011;4746;35.664;139.738;2024-01-27T11:50:29;4.13;;;2.30;;
9413;SDS011;4746;35.664;139.738;2024-01-27T11:52:58;2.20;;;2.00;;
9413;SDS011;4746;35.664;139.738;2024-01-27T11:55:26;2.70;;;2.17;;
9413;SDS011;4746;35.664;139.738;2024-01-27T11:57:53;2.50;;;2.07;;
9413;SDS011;4746;35.664;139.738;2024-01-27T12:00:21;2.00;;;1.90;;
9413;SDS011;4746;35.664;139.738;2024-01-27T12:02:52;3.00;;;2.17;;
9413;SDS011;4746;35.664;139.738;2024-01-27T12:05:19;2.40;;;2.20;;
9413;SDS011;4746;35.664;139.738;2024-01-27T12:07:47;2.43;;;2.23;;
9413;SDS011;4746;35.664;139.738;2024-01-27T12:10:17;2.17;;;1.97;;
9413;SDS011;4746;35.664;139.738;2024-01-27T12:12:45;3.00;;;2.27;;
9413;SDS011;4746;35.664;139.738;2024-01-27T12:15:13;3.00;;;2.50;;
9413;SDS011;4746;35.664;139.738;2024-01-27T12:17:40;2.97;;;2.30;;
9413;SDS011;4746;35.664;139.738;2024-01-27T12:20:14;2.83;;;2.13;;
9413;SDS011;4746;35.664;139.738;2024-01-27T12:22:42;2.83;;;2.63;;
9413;SDS011;4746;35.664;139.738;2024-01-27T12:25:10;2.93;;;2.60;;
9413;SDS011;4746;35.664;139.738;2024-01-27T12:27:39;2.90;;;2.60;;
9413;SDS011;4746;35.664;139.738;2024-01-27T12:30:08;2.30;;;2.10;;
9413;SDS011;4746;35.664;139.738;2024-01-27T12:32:36;3.73;;;3.20;;
9413;SDS011;4746;35.664;139.738;2024-01-27T12:35:04;3.03;;;2.57;;
9413;SDS011;4746;35.664;139.738;2024-01-27T12:37:36;2.77;;;2.53;;
9413;SDS011;4746;35.664;139.738;2024-01-27T12:40:20;3.00;;;2.73;;
9413;SDS011;4746;35.664;139.738;2024-01-27T12:42:49;2.80;;;2.60;;
9413;SDS011;4746;35.664;139.738;2024-01-27T12:45:17;2.83;;;2.10;;
9413;SDS011;4746;35.664;139.738;2024-01-27T12:47:44;2.93;;;2.53;;
9413;SDS011;4746;35.664;139.738;2024-01-27T12:50:12;2.73;;;2.47;;
9413;SDS011;4746;35.664;139.738;2024-01-27T12:52:40;2.40;;;2.20;;
9413;SDS011;4746;35.664;139.738;2024-01-27T12:55:10;2.20;;;2.00;;
9413;SDS011;4746;35.664;139.738;2024-01-27T12:57:38;2.47;;;2.20;;
9413;SDS011;4746;35.664;139.738;2024-01-27T13:00:07;2.20;;;2.00;;
9413;SDS011;4746;35.664;139.738;2024-01-27T13:02:37;2.33;;;2.13;;
9413;SDS011;4746;35.664;139.738;2024-01-27T13:05:06;2.07;;;1.97;;
9413;SDS011;4746;35.664;139.738;2024-01-27T13:07:35;2.00;;;1.80;;
9413;SDS011;4746;35.664;139.738;2024-01-27T13:10:02;2.27;;;1.90;;
9413;SDS011;4746;35.664;139.738;2024-01-27T13:12:31;1.80;;;1.70;;
9413;SDS011;4746;35.664;139.738;2024-01-27T13:14:58;2.20;;;2.00;;
9413;SDS011;4746;35.664;139.738;2024-01-27T13:17:26;3.07;;;2.00;;
9413;SDS011;4746;35.664;139.738;2024-01-27T13:19:53;2.27;;;1.90;;
9413;SDS011;4746;35.664;139.738;2024-01-27T13:22:21;1.70;;;1.60;;
9413;SDS011;4746;35.664;139.738;2024-01-27T13:24:50;1.80;;;1.70;;
9413;SDS011;4746;35.664;139.738;2024-01-27T13:27:17;1.93;;;1.83;;
9413;SDS011;4746;35.664;139.738;2024-01-27T13:29:45;2.20;;;2.10;;
9413;SDS011;4746;35.664;139.738;2024-01-27T13:32:13;2.20;;;2.00;;
9413;SDS011;4746;35.664;139.738;2024-01-27T13:34:41;2.20;;;2.00;;
9413;SDS011;4746;35.664;139.738;2024-01-27T13:37:08;4.07;;;2.03;;
9413;SDS011;4746;35.664;139.738;2024-01-27T13:39:37;3.00;;;1.80;;
9413;SDS011;4746;35.664;139.738;2024-01-27T13:42:05;2.00;;;1.60;;
9413;SDS011;4746;35.664;139.738;2024-01-27T13:44:32;1.80;;;1.70;;
9413;SDS011;4746;35.664;139.738;2024-01-27T13:47:02;1.93;;;1.70;;
9413;SDS011;4746;35.664;139.738;2024-01-27T13:49:31;2.23;;;2.10;;
9413;SDS011;4746;35.664;139.738;2024-01-27T13:51:59;2.10;;;1.80;;
9413;SDS011;4746;35.664;139.738;2024-01-27T13:54:27;1.70;;;1.60;;
9413;SDS011;4746;35.664;139.738;2024-01-27T13:56:54;2.10;;;1.90;;
9413;SDS011;4746;35.664;139.738;2024-01-27T13:59:23;2.10;;;1.80;;
9413;SDS011;4746;35.664;139.738;2024-01-27T14:01:53;1.87;;;1.70;;
9413;SDS011;4746;35.664;139.738;2024-01-27T14:04:22;2.07;;;1.90;;
9413;SDS011;4746;35.664;139.738;2024-01-27T14:06:51;2.33;;;2.13;;
9413;SDS011;4746;35.664;139.738;2024-01-27T14:09:23;1.87;;;1.77;;
9413;SDS011;4746;35.664;139.738;2024-01-27T14:11:52;2.10;;;1.90;;
9413;SDS011;4746;35.664;139.738;2024-01-27T14:14:20;2.10;;;1.90;;
9413;SDS011;4746;35.664;139.738;2024-01-27T14:16:47;1.70;;;1.60;;
9413;SDS011;4746;35.664;139.738;2024-01-27T14:19:15;2.50;;;2.23;;
9413;SDS011;4746;35.664;139.738;2024-01-27T14:21:42;3.07;;;1.80;;
9413;SDS011;4746;35.664;139.738;2024-01-27T14:24:10;1.70;;;1.60;;
9413;SDS011;4746;35.664;139.738;2024-01-27T14:26:39;1.30;;;1.30;;
9413;SDS011;4746;35.664;139.738;2024-01-27T14:29:08;1.63;;;1.53;;
9413;SDS011;4746;35.664;139.738;2024-01-27T14:31:35;2.37;;;1.70;;
9413;SDS011;4746;35.664;139.738;2024-01-27T14:34:03;1.60;;;1.50;;
9413;SDS011;4746;35.664;139.738;2024-01-27T14:36:31;1.67;;;1.57;;
9413;SDS011;4746;35.664;139.738;2024-01-27T14:38:58;1.67;;;1.50;;
9413;SDS011;4746;35.664;139.738;2024-01-27T14:41:27;1.50;;;1.40;;
9413;SDS011;4746;35.664;139.738;2024-01-27T14:43:54;1.37;;;1.30;;
9413;SDS011;4746;35.664;139.738;2024-01-27T14:46:22;1.60;;;1.50;;
9413;SDS011;4746;35.664;139.738;2024-01-27T14:48:52;2.53;;;1.67;;
9413;SDS011;4746;35.664;139.738;2024-01-27T14:51:19;3.27;;;1.60;;
9413;SDS011;4746;35.664;139.738;2024-01-27T14:53:48;1.80;;;1.33;;
9413;SDS011;4746;35.664;139.738;2024-01-27T14:56:16;2.80;;;1.50;;
9413;SDS011;4746;35.664;139.738;2024-01-27T14:58:44;1.70;;;1.60;;